Search for airport 
image banner adimage banner adimage banner ad
image banner ad

PN95 - Horne

Located in Scenery Hill, United States

ICAO - PN95, IATA -

Data provided by Airmate  

General information

Coordinates: N40°6'0" W80°1'59"
Elevation is 1040 feet MSL.
Magnetic variation is -07° East
View others Airports in Pennsylvania

Operational data

Special qualification required
Current time UTC:
Current local time:
Weather at : KAFJ - Washington County ( 22 km )
METAR: KAFJ 150556Z AUTO 31004KT 10SM SCT090 16/14 A2993 RMK AO2 SLP129 T01560139 10200 20150 53005
View NOTAMs / SUP AIP / TFR affecting this airport [VIEW]
Communications frequencies: [VIEW]

Runways:

RWY identifierQFULength (ft)Width (ft)SurfaceLDA (ft)
E1300200GRASS
W1300200GRASS

Airport contact information

Address: Scenery Hill United States

Satellite view of PN95